Time;durP1;ratioP1;P1;durP2;ratioP2;P2;SDS_P1;SDS_P2;PMS_P1;PMS_P2;Temp;Humidity;BMP_temperature;BMP_pressure;BME280_temperature;BME280_humidity;BME280_pressure;Samples;Min_cycle;Max_cycle;Signal;HPM_P1;HPM_P2
2023/12/20 00:00:03;;;;;;;11.35;1.75;;;;;;;;;;5094346;28;20394;-75
2023/12/20 00:02:30;;;;;;;17.65;2.15;;;;;;;;;;5063208;28;20048;-75
2023/12/20 00:04:56;;;;;;;17.30;2.90;;;;;;;;;;5091809;28;20040;-75
2023/12/20 00:07:22;;;;;;;21.80;2.58;;;;;;;;;;5085751;28;20413;-75
2023/12/20 00:09:48;;;;;;;16.80;2.13;;;;;;;;;;5093232;28;20070;-75
2023/12/20 00:12:14;;;;;;;17.20;2.92;;;;;;;;;;5093369;28;20040;-75
2023/12/20 00:14:40;;;;;;;15.73;1.80;;;;;;;;;;5093256;28;20409;-75
2023/12/20 00:17:06;;;;;;;12.35;2.03;;;;;;;;;;5093542;28;20052;-75
2023/12/20 00:19:32;;;;;;;16.17;2.55;;;;;;;;;;5093612;28;20044;-75
2023/12/20 00:21:59;;;;;;;20.67;2.30;;;;;;;;;;5091855;28;20036;-75
2023/12/20 00:24:25;;;;;;;14.85;2.30;;;;;;;;;;5063551;28;20405;-75
2023/12/20 00:26:51;;;;;;;16.63;2.05;;;;;;;;;;5076753;28;20048;-75
2023/12/20 00:29:18;;;;;;;16.17;2.20;;;;;;;;;;5086826;28;20075;-75
2023/12/20 00:31:44;;;;;;;18.95;2.80;;;;;;;;;;5087302;28;20098;-75
2023/12/20 00:34:10;;;;;;;18.85;2.00;;;;;;;;;;5090451;28;20036;-75
2023/12/20 00:36:36;;;;;;;14.35;2.05;;;;;;;;;;5044156;28;20044;-75
2023/12/20 00:39:02;;;;;;;19.65;2.30;;;;;;;;;;5074104;28;20105;-75
2023/12/20 00:41:28;;;;;;;17.60;2.30;;;;;;;;;;5073877;28;20044;-75
2023/12/20 00:43:54;;;;;;;17.67;2.20;;;;;;;;;;5069612;28;20048;-75
2023/12/20 00:46:20;;;;;;;22.95;2.28;;;;;;;;;;5092466;28;20538;-75
2023/12/20 00:48:46;;;;;;;16.83;2.08;;;;;;;;;;5090955;28;20477;-75
2023/12/20 00:51:12;;;;;;;14.02;2.15;;;;;;;;;;5087928;28;20489;-75
2023/12/20 00:53:38;;;;;;;11.75;2.00;;;;;;;;;;5087849;28;20048;-75
2023/12/20 00:56:04;;;;;;;18.02;2.97;;;;;;;;;;5082892;28;20052;-75
2023/12/20 00:58:31;;;;;;;13.68;2.00;;;;;;;;;;5088665;28;20048;-75
2023/12/20 01:00:58;;;;;;;18.90;2.53;;;;;;;;;;5091533;28;20421;-75
2023/12/20 01:03:24;;;;;;;14.25;2.55;;;;;;;;;;5073579;28;20060;-75
2023/12/20 01:05:50;;;;;;;15.00;2.03;;;;;;;;;;5074890;28;20055;-75
2023/12/20 01:08:16;;;;;;;20.60;2.60;;;;;;;;;;5092882;28;20082;-75
2023/12/20 01:10:42;;;;;;;14.13;2.08;;;;;;;;;;5086157;28;20489;-75
2023/12/20 01:13:08;;;;;;;17.65;2.28;;;;;;;;;;5082407;28;20460;-75
2023/12/20 01:15:35;;;;;;;16.42;2.38;;;;;;;;;;5078484;28;20072;-75
2023/12/20 01:18:02;;;;;;;14.27;2.05;;;;;;;;;;5092882;28;20056;-75
2023/12/20 01:20:28;;;;;;;13.00;1.80;;;;;;;;;;5079834;28;20059;-75
2023/12/20 01:22:54;;;;;;;15.43;2.03;;;;;;;;;;5058867;28;20043;-75
2023/12/20 01:25:20;;;;;;;13.10;2.10;;;;;;;;;;5082532;28;20050;-75
2023/12/20 01:27:46;;;;;;;19.92;2.60;;;;;;;;;;5074402;28;20045;-75
2023/12/20 01:30:12;;;;;;;14.45;2.10;;;;;;;;;;5083134;28;20134;-75
2023/12/20 01:32:38;;;;;;;15.32;2.08;;;;;;;;;;5087374;28;20048;-75
2023/12/20 01:35:04;;;;;;;18.00;2.60;;;;;;;;;;5082452;28;20047;-75
2023/12/20 01:37:31;;;;;;;19.50;2.38;;;;;;;;;;5048594;28;20075;-75
2023/12/20 01:39:57;;;;;;;20.23;2.20;;;;;;;;;;5080775;28;20040;-75
2023/12/20 01:42:23;;;;;;;19.23;2.45;;;;;;;;;;5075938;28;20128;-75
2023/12/20 01:44:49;;;;;;;16.52;2.40;;;;;;;;;;5078319;28;20045;-75
2023/12/20 01:47:15;;;;;;;22.80;2.83;;;;;;;;;;5091305;28;20044;-75
2023/12/20 01:49:41;;;;;;;16.98;2.60;;;;;;;;;;5090098;28;20037;-75
2023/12/20 01:52:07;;;;;;;24.40;2.88;;;;;;;;;;5092680;28;20043;-75
2023/12/20 01:54:35;;;;;;;22.55;2.95;;;;;;;;;;5064611;28;20036;-75
2023/12/20 01:57:01;;;;;;;25.27;3.17;;;;;;;;;;5065965;28;20051;-75
2023/12/20 01:59:27;;;;;;;19.98;2.60;;;;;;;;;;5072401;28;20044;-75
2023/12/20 02:01:53;;;;;;;16.45;2.40;;;;;;;;;;5061631;28;20055;-75
2023/12/20 02:04:19;;;;;;;20.08;3.60;;;;;;;;;;5083430;28;20050;-75
2023/12/20 02:06:47;;;;;;;22.67;3.15;;;;;;;;;;5091954;28;20119;-75
2023/12/20 02:09:13;;;;;;;17.73;2.65;;;;;;;;;;5089981;28;20408;-75
2023/12/20 02:11:39;;;;;;;20.00;2.70;;;;;;;;;;5077158;28;20516;-75
2023/12/20 02:14:05;;;;;;;20.25;2.65;;;;;;;;;;5091744;28;20063;-75
2023/12/20 02:16:31;;;;;;;19.38;3.33;;;;;;;;;;5089830;28;20048;-75
2023/12/20 02:18:57;;;;;;;17.58;2.75;;;;;;;;;;5075948;28;20048;-75
2023/12/20 02:21:33;;;;;;;17.40;2.67;;;;;;;;;;5075829;28;20055;-75
2023/12/20 02:23:59;;;;;;;21.50;3.17;;;;;;;;;;5084807;28;20472;-75
2023/12/20 02:26:25;;;;;;;20.27;2.70;;;;;;;;;;5076994;28;20059;-75
2023/12/20 02:28:52;;;;;;;19.88;2.97;;;;;;;;;;5081442;28;20072;-75
2023/12/20 02:31:21;;;;;;;20.27;2.83;;;;;;;;;;5082317;28;20510;-75
2023/12/20 02:33:47;;;;;;;19.83;2.90;;;;;;;;;;5083825;28;20044;-75
2023/12/20 02:36:13;;;;;;;21.67;2.97;;;;;;;;;;5087695;28;20055;-75
2023/12/20 02:38:39;;;;;;;18.05;2.53;;;;;;;;;;5075571;28;20045;-75
2023/12/20 02:41:05;;;;;;;24.50;3.38;;;;;;;;;;5085989;28;20032;-75
2023/12/20 02:43:31;;;;;;;22.73;2.92;;;;;;;;;;5076947;28;20040;-75
2023/12/20 02:45:57;;;;;;;20.08;2.80;;;;;;;;;;5073654;28;20048;-75
2023/12/20 02:48:23;;;;;;;17.20;2.97;;;;;;;;;;5094951;28;20040;-75
2023/12/20 02:50:49;;;;;;;17.25;2.42;;;;;;;;;;5088679;28;20041;-75
2023/12/20 02:53:15;;;;;;;15.85;2.92;;;;;;;;;;5076625;28;20513;-75
2023/12/20 02:55:41;;;;;;;19.48;2.60;;;;;;;;;;5076124;28;20509;-75
2023/12/20 02:58:07;;;;;;;16.02;2.55;;;;;;;;;;5091406;28;20061;-75
2023/12/20 03:00:34;;;;;;;20.80;2.50;;;;;;;;;;5080994;28;20044;-75
2023/12/20 03:03:00;;;;;;;18.60;2.45;;;;;;;;;;5089502;28;20084;-75
2023/12/20 03:05:26;;;;;;;20.42;2.75;;;;;;;;;;5071411;28;20051;-75
2023/12/20 03:07:52;;;;;;;20.35;2.80;;;;;;;;;;5094252;28;20067;-75
2023/12/20 03:10:19;;;;;;;20.45;2.95;;;;;;;;;;5076058;28;20047;-75
2023/12/20 03:12:45;;;;;;;20.85;3.13;;;;;;;;;;5091157;28;20512;-75
2023/12/20 03:15:11;;;;;;;20.48;3.28;;;;;;;;;;5083467;28;20083;-75
2023/12/20 03:17:37;;;;;;;23.48;3.33;;;;;;;;;;5081685;28;20035;-75
2023/12/20 03:20:03;;;;;;;26.30;3.58;;;;;;;;;;5088106;28;20464;-75
2023/12/20 03:22:29;;;;;;;21.35;3.13;;;;;;;;;;5086546;28;20429;-75
2023/12/20 03:24:55;;;;;;;21.42;3.13;;;;;;;;;;5082323;28;20055;-75
2023/12/20 03:27:21;;;;;;;18.75;3.38;;;;;;;;;;5076088;28;20036;-75
2023/12/20 03:29:47;;;;;;;24.25;3.22;;;;;;;;;;5087128;28;20724;-75
2023/12/20 03:32:13;;;;;;;20.02;3.70;;;;;;;;;;5067785;28;20089;-75
2023/12/20 03:34:40;;;;;;;20.23;3.50;;;;;;;;;;5061574;28;20052;-75
2023/12/20 03:37:06;;;;;;;22.17;3.10;;;;;;;;;;5094868;28;20040;-75
2023/12/20 03:39:32;;;;;;;25.20;3.67;;;;;;;;;;5094622;28;20127;-75
2023/12/20 03:41:58;;;;;;;30.77;4.03;;;;;;;;;;5094422;28;20048;-75
2023/12/20 03:44:24;;;;;;;26.95;3.45;;;;;;;;;;5092670;28;20040;-75
2023/12/20 03:46:50;;;;;;;19.42;3.25;;;;;;;;;;5092086;28;20043;-75
2023/12/20 03:49:16;;;;;;;25.23;3.63;;;;;;;;;;5093475;28;20401;-75
2023/12/20 03:51:42;;;;;;;31.10;4.10;;;;;;;;;;5093072;28;20497;-75
2023/12/20 03:54:09;;;;;;;28.75;3.33;;;;;;;;;;5080570;28;20094;-75
2023/12/20 03:56:35;;;;;;;29.10;3.70;;;;;;;;;;5088898;28;20071;-75
2023/12/20 03:59:01;;;;;;;25.67;3.58;;;;;;;;;;5081229;28;20040;-75
2023/12/20 04:01:27;;;;;;;26.30;3.33;;;;;;;;;;5072119;28;20394;-75
2023/12/20 04:03:53;;;;;;;27.63;4.70;;;;;;;;;;5088926;28;20051;-75
2023/12/20 04:06:19;;;;;;;21.05;4.03;;;;;;;;;;5058118;28;20048;-75
2023/12/20 04:08:45;;;;;;;23.75;3.88;;;;;;;;;;5092547;28;20062;-75
2023/12/20 04:11:11;;;;;;;25.40;4.22;;;;;;;;;;5081171;28;20045;-75
2023/12/20 04:13:37;;;;;;;24.77;4.30;;;;;;;;;;5081885;28;20044;-75
2023/12/20 04:16:03;;;;;;;33.88;3.95;;;;;;;;;;5084298;28;20488;-75
2023/12/20 04:18:31;;;;;;;28.27;3.85;;;;;;;;;;5090409;28;20061;-75
2023/12/20 04:20:57;;;;;;;25.08;3.83;;;;;;;;;;5083835;28;20052;-75
2023/12/20 04:23:23;;;;;;;26.45;3.85;;;;;;;;;;5093068;28;20052;-75
2023/12/20 04:25:50;;;;;;;28.83;4.43;;;;;;;;;;5086411;28;20485;-75
2023/12/20 04:28:16;;;;;;;29.33;4.45;;;;;;;;;;5085843;28;20044;-75
2023/12/20 04:30:43;;;;;;;35.90;4.88;;;;;;;;;;5081675;28;20051;-75
2023/12/20 04:33:09;;;;;;;27.42;3.85;;;;;;;;;;5087499;28;20047;-75
2023/12/20 04:35:35;;;;;;;27.45;3.60;;;;;;;;;;5083342;28;20048;-75
2023/12/20 04:38:01;;;;;;;27.88;3.95;;;;;;;;;;5092486;28;20051;-75
2023/12/20 04:40:27;;;;;;;31.88;4.35;;;;;;;;;;5092524;28;20093;-75
2023/12/20 04:42:53;;;;;;;33.40;3.80;;;;;;;;;;5092130;28;20044;-75
2023/12/20 04:45:19;;;;;;;20.60;3.60;;;;;;;;;;5091141;28;20040;-75
2023/12/20 04:47:46;;;;;;;26.67;3.95;;;;;;;;;;5072137;28;20052;-75
2023/12/20 04:50:13;;;;;;;28.73;4.72;;;;;;;;;;5086865;28;20040;-75
2023/12/20 04:52:39;;;;;;;29.02;5.25;;;;;;;;;;5082221;28;20047;-75
2023/12/20 04:55:05;;;;;;;29.92;5.05;;;;;;;;;;5077573;28;20036;-76
2023/12/20 04:57:31;;;;;;;28.42;4.47;;;;;;;;;;5076328;28;20079;-75
2023/12/20 04:59:57;;;;;;;37.70;4.47;;;;;;;;;;5062136;28;20094;-75
2023/12/20 05:02:24;;;;;;;27.27;4.80;;;;;;;;;;5068734;28;20044;-75
2023/12/20 05:04:50;;;;;;;32.53;4.22;;;;;;;;;;5081698;28;20049;-74
2023/12/20 05:07:16;;;;;;;32.47;4.45;;;;;;;;;;5079807;28;20049;-75
2023/12/20 05:09:42;;;;;;;32.13;4.97;;;;;;;;;;5083236;28;20409;-75
2023/12/20 05:12:08;;;;;;;30.98;4.22;;;;;;;;;;5083353;28;20143;-76
2023/12/20 05:14:34;;;;;;;28.25;4.03;;;;;;;;;;5072359;28;20506;-75
2023/12/20 05:17:00;;;;;;;39.10;5.22;;;;;;;;;;5073049;28;20055;-75
2023/12/20 05:19:26;;;;;;;32.50;5.00;;;;;;;;;;5074368;28;20052;-74
2023/12/20 05:21:52;;;;;;;31.45;4.22;;;;;;;;;;5077617;28;20506;-75
2023/12/20 05:24:18;;;;;;;28.30;4.18;;;;;;;;;;5062707;28;20420;-74
2023/12/20 05:26:44;;;;;;;32.45;4.90;;;;;;;;;;5091436;28;20398;-75
2023/12/20 05:29:11;;;;;;;35.67;5.40;;;;;;;;;;5067263;28;20099;-75
2023/12/20 05:31:37;;;;;;;23.95;4.20;;;;;;;;;;5081675;28;20045;-75
2023/12/20 05:34:03;;;;;;;30.80;4.95;;;;;;;;;;5084571;28;20036;-76
2023/12/20 05:36:29;;;;;;;28.05;4.47;;;;;;;;;;5090090;28;20051;-75
2023/12/20 05:38:55;;;;;;;30.60;5.10;;;;;;;;;;5083903;28;20517;-74
2023/12/20 05:41:21;;;;;;;30.80;4.60;;;;;;;;;;5076270;28;20119;-75
2023/12/20 05:43:47;;;;;;;27.38;5.68;;;;;;;;;;5090068;28;20078;-75
2023/12/20 05:46:13;;;;;;;23.98;4.00;;;;;;;;;;5090700;28;20067;-75
2023/12/20 05:48:39;;;;;;;26.08;4.88;;;;;;;;;;5092139;28;20043;-74
2023/12/20 05:51:05;;;;;;;33.08;4.68;;;;;;;;;;5091933;28;20036;-75
2023/12/20 05:53:31;;;;;;;37.50;5.25;;;;;;;;;;5095153;28;20039;-74
2023/12/20 05:55:57;;;;;;;35.22;5.05;;;;;;;;;;5083059;28;20093;-74
2023/12/20 05:58:24;;;;;;;30.85;4.63;;;;;;;;;;5087120;28;20036;-75
2023/12/20 06:00:50;;;;;;;27.65;5.00;;;;;;;;;;5089664;28;20052;-75
2023/12/20 06:03:16;;;;;;;29.67;4.35;;;;;;;;;;5086379;28;20052;-75
2023/12/20 06:05:42;;;;;;;33.72;4.68;;;;;;;;;;5094920;28;20101;-75
2023/12/20 06:08:08;;;;;;;26.00;4.43;;;;;;;;;;5073247;28;20054;-75
2023/12/20 06:10:34;;;;;;;27.27;4.10;;;;;;;;;;5093551;28;20055;-75
2023/12/20 06:13:00;;;;;;;24.95;5.13;;;;;;;;;;5094902;28;20123;-75
2023/12/20 06:15:26;;;;;;;28.75;3.90;;;;;;;;;;5089319;28;20516;-75
2023/12/20 06:17:52;;;;;;;29.80;5.15;;;;;;;;;;5094394;28;20052;-74
2023/12/20 06:20:19;;;;;;;24.08;4.70;;;;;;;;;;5094264;28;20516;-75
2023/12/20 06:22:45;;;;;;;25.95;4.32;;;;;;;;;;5090302;28;20048;-75
2023/12/20 06:25:11;;;;;;;26.42;4.75;;;;;;;;;;5064057;28;20033;-75
2023/12/20 06:27:37;;;;;;;29.00;4.20;;;;;;;;;;5084769;28;20040;-75
2023/12/20 06:30:03;;;;;;;28.65;4.05;;;;;;;;;;5086679;28;20048;-75
2023/12/20 06:32:29;;;;;;;28.50;4.10;;;;;;;;;;5086752;28;20451;-75
2023/12/20 06:34:55;;;;;;;31.13;4.63;;;;;;;;;;5086373;28;20059;-75
2023/12/20 06:37:21;;;;;;;27.33;4.18;;;;;;;;;;5087544;28;20040;-75
2023/12/20 06:39:47;;;;;;;29.23;4.32;;;;;;;;;;5085583;28;20036;-76
2023/12/20 06:42:13;;;;;;;35.05;5.20;;;;;;;;;;5085992;28;20493;-75
2023/12/20 06:44:40;;;;;;;28.42;4.07;;;;;;;;;;5087139;28;20122;-76
2023/12/20 06:47:06;;;;;;;30.20;5.03;;;;;;;;;;5086262;28;20536;-76
2023/12/20 06:49:32;;;;;;;28.67;4.78;;;;;;;;;;5086875;28;20044;-76
2023/12/20 06:51:58;;;;;;;27.92;4.18;;;;;;;;;;5085426;28;20052;-75
2023/12/20 06:54:24;;;;;;;28.95;4.10;;;;;;;;;;5082539;28;20044;-75
2023/12/20 06:56:50;;;;;;;28.73;5.10;;;;;;;;;;5080149;28;20063;-75
2023/12/20 06:59:16;;;;;;;26.38;4.32;;;;;;;;;;5090712;28;20123;-74
2023/12/20 07:01:42;;;;;;;30.60;4.32;;;;;;;;;;5090451;28;20048;-75
2023/12/20 07:04:09;;;;;;;30.05;4.50;;;;;;;;;;5074611;28;20036;-76
2023/12/20 07:06:35;;;;;;;28.50;4.38;;;;;;;;;;5062501;28;20040;-76
2023/12/20 07:09:01;;;;;;;26.45;4.07;;;;;;;;;;5096602;28;20051;-74
2023/12/20 07:11:27;;;;;;;28.33;4.40;;;;;;;;;;5078764;28;20056;-75
2023/12/20 07:13:53;;;;;;;29.88;4.25;;;;;;;;;;5094973;28;20446;-75
2023/12/20 07:16:19;;;;;;;32.10;5.07;;;;;;;;;;5092204;28;20409;-75
2023/12/20 07:18:45;;;;;;;31.45;5.32;;;;;;;;;;5075072;28;20094;-75
2023/12/20 07:21:11;;;;;;;28.95;4.82;;;;;;;;;;5057054;28;20087;-75
2023/12/20 07:23:37;;;;;;;30.80;4.30;;;;;;;;;;5074812;28;20045;-75
2023/12/20 07:26:04;;;;;;;24.40;4.15;;;;;;;;;;5076865;28;20041;-75
2023/12/20 07:28:30;;;;;;;30.80;4.03;;;;;;;;;;5074921;28;20127;-75
2023/12/20 07:30:56;;;;;;;31.60;4.65;;;;;;;;;;5092783;28;20048;-74
2023/12/20 07:33:22;;;;;;;27.42;4.22;;;;;;;;;;5094706;28;20047;-75
2023/12/20 07:35:48;;;;;;;31.58;5.38;;;;;;;;;;5076149;28;20105;-75
2023/12/20 07:38:14;;;;;;;26.17;4.30;;;;;;;;;;5094428;28;20044;-74
2023/12/20 07:40:40;;;;;;;32.97;4.32;;;;;;;;;;5094788;28;20200;-75
2023/12/20 07:43:06;;;;;;;32.03;4.30;;;;;;;;;;5094072;28;20393;-75
2023/12/20 07:45:32;;;;;;;32.92;4.93;;;;;;;;;;5094680;28;20059;-75
2023/12/20 07:47:58;;;;;;;29.15;4.43;;;;;;;;;;5093687;28;20040;-75
2023/12/20 07:50:24;;;;;;;26.98;4.43;;;;;;;;;;5091882;28;20126;-75
2023/12/20 07:52:50;;;;;;;34.95;4.53;;;;;;;;;;5073668;28;20045;-75
2023/12/20 07:55:16;;;;;;;30.83;4.85;;;;;;;;;;5088060;28;20093;-75
2023/12/20 07:57:43;;;;;;;31.00;4.55;;;;;;;;;;5079449;28;20056;-75
2023/12/20 08:00:09;;;;;;;35.53;4.30;;;;;;;;;;5054153;28;20044;-75
2023/12/20 08:02:35;;;;;;;30.35;5.22;;;;;;;;;;5078377;28;20104;-75
2023/12/20 08:05:01;;;;;;;26.42;4.80;;;;;;;;;;5075228;28;20052;-75
2023/12/20 08:07:27;;;;;;;32.20;5.25;;;;;;;;;;5093141;28;20474;-75
2023/12/20 08:09:54;;;;;;;27.17;4.03;;;;;;;;;;5092958;28;20469;-75
2023/12/20 08:12:20;;;;;;;31.65;4.72;;;;;;;;;;5077463;28;20098;-75
2023/12/20 08:14:46;;;;;;;30.35;5.40;;;;;;;;;;5053650;28;20060;-75
2023/12/20 08:17:13;;;;;;;28.45;4.90;;;;;;;;;;5082054;28;20043;-75
2023/12/20 08:19:39;;;;;;;31.42;5.32;;;;;;;;;;5092990;28;20058;-75
2023/12/20 08:22:05;;;;;;;31.27;4.90;;;;;;;;;;5085417;28;20048;-75
2023/12/20 08:24:31;;;;;;;30.45;4.40;;;;;;;;;;5055160;28;20040;-75
2023/12/20 08:26:57;;;;;;;29.35;4.70;;;;;;;;;;5067345;28;20048;-75
2023/12/20 08:29:23;;;;;;;28.60;4.75;;;;;;;;;;5072761;28;20044;-75
2023/12/20 08:31:53;;;;;;;27.67;4.50;;;;;;;;;;5080277;28;20066;-75
2023/12/20 08:34:19;;;;;;;29.35;4.82;;;;;;;;;;5080053;28;20090;-75
2023/12/20 08:36:45;;;;;;;25.27;4.53;;;;;;;;;;5072069;28;20037;-75
2023/12/20 08:39:11;;;;;;;27.30;4.82;;;;;;;;;;5081852;28;20043;-75
2023/12/20 08:41:37;;;;;;;23.63;3.92;;;;;;;;;;5078117;28;20143;-75
2023/12/20 08:44:03;;;;;;;23.38;3.92;;;;;;;;;;5061016;28;20036;-75
2023/12/20 08:46:30;;;;;;;31.30;4.65;;;;;;;;;;5080064;28;20064;-75
2023/12/20 08:48:56;;;;;;;30.67;4.78;;;;;;;;;;5085361;28;20061;-75
2023/12/20 08:51:25;;;;;;;24.77;4.40;;;;;;;;;;5072425;28;20057;-75
2023/12/20 08:53:51;;;;;;;29.83;5.13;;;;;;;;;;5082546;28;20083;-75
2023/12/20 08:56:17;;;;;;;29.38;4.72;;;;;;;;;;5092841;28;20048;-75
2023/12/20 08:58:44;;;;;;;20.48;4.00;;;;;;;;;;5092632;28;20555;-75
2023/12/20 09:01:10;;;;;;;18.98;3.72;;;;;;;;;;5092091;28;20044;-75
2023/12/20 09:03:36;;;;;;;22.95;4.05;;;;;;;;;;5092393;28;20055;-75
2023/12/20 09:06:02;;;;;;;21.17;3.95;;;;;;;;;;5092738;28;20047;-75
2023/12/20 09:08:28;;;;;;;20.33;2.92;;;;;;;;;;5083121;28;20143;-75
2023/12/20 09:10:54;;;;;;;20.23;3.30;;;;;;;;;;5092670;28;20050;-75
2023/12/20 09:13:22;;;;;;;25.42;3.78;;;;;;;;;;5091975;28;20040;-75
2023/12/20 09:15:48;;;;;;;23.98;3.63;;;;;;;;;;5091963;28;20064;-75
2023/12/20 09:18:14;;;;;;;20.48;3.53;;;;;;;;;;5084930;28;20052;-75
2023/12/20 09:20:40;;;;;;;21.73;3.67;;;;;;;;;;5076320;28;20041;-74
2023/12/20 09:23:06;;;;;;;26.00;3.67;;;;;;;;;;5078183;28;20081;-75
2023/12/20 09:25:32;;;;;;;24.20;3.88;;;;;;;;;;5077819;28;20049;-75
2023/12/20 09:27:58;;;;;;;32.60;5.55;;;;;;;;;;5073133;28;20075;-75
2023/12/20 09:30:25;;;;;;;27.67;4.68;;;;;;;;;;5092315;28;20073;-75
2023/12/20 09:32:51;;;;;;;25.73;4.70;;;;;;;;;;5092185;28;20051;-75
2023/12/20 09:35:17;;;;;;;25.20;4.35;;;;;;;;;;5091573;28;20518;-75
2023/12/20 09:37:44;;;;;;;27.27;4.70;;;;;;;;;;5092253;28;20131;-75
2023/12/20 09:40:13;;;;;;;20.98;3.78;;;;;;;;;;5089332;28;20051;-75
2023/12/20 09:42:45;;;;;;;26.05;3.80;;;;;;;;;;5073083;28;20619;-75
2023/12/20 09:45:14;;;;;;;25.20;4.30;;;;;;;;;;5064297;28;20056;-75
2023/12/20 09:47:40;;;;;;;18.75;3.00;;;;;;;;;;5072060;28;20044;-75
2023/12/20 09:50:06;;;;;;;6.85;1.42;;;;;;;;;;5079645;28;20493;-75
2023/12/20 09:52:34;;;;;;;10.10;1.60;;;;;;;;;;5092068;28;20123;-75
2023/12/20 09:55:04;;;;;;;10.05;1.58;;;;;;;;;;5091966;28;20044;-74
2023/12/20 09:57:30;;;;;;;8.18;1.45;;;;;;;;;;5074043;28;20045;-75
2023/12/20 09:59:56;;;;;;;6.63;1.23;;;;;;;;;;5087524;28;20053;-75
2023/12/20 10:02:27;;;;;;;9.90;1.50;;;;;;;;;;5049183;28;20052;-75
2023/12/20 10:04:53;;;;;;;10.80;1.35;;;;;;;;;;5082959;28;20064;-75
2023/12/20 10:07:19;;;;;;;12.93;1.92;;;;;;;;;;5080313;28;20056;-75
2023/12/20 10:09:46;;;;;;;11.85;1.23;;;;;;;;;;5070308;28;20063;-75
2023/12/20 10:12:12;;;;;;;12.10;1.55;;;;;;;;;;5073817;28;20135;-75
2023/12/20 10:14:39;;;;;;;7.47;1.52;;;;;;;;;;5090375;28;20067;-75
2023/12/20 10:17:06;;;;;;;10.00;1.27;;;;;;;;;;5090604;28;20066;-75
2023/12/20 10:19:32;;;;;;;8.35;1.20;;;;;;;;;;5091649;28;20121;-75
2023/12/20 10:22:02;;;;;;;10.25;1.60;;;;;;;;;;5073537;28;20040;-75
2023/12/20 10:24:31;;;;;;;9.77;1.58;;;;;;;;;;5090550;28;20048;-75
2023/12/20 10:27:04;;;;;;;12.05;1.35;;;;;;;;;;5084102;28;20051;-75
2023/12/20 10:29:37;;;;;;;8.55;1.38;;;;;;;;;;5080707;28;20330;-75
2023/12/20 10:32:22;;;;;;;10.50;1.45;;;;;;;;;;5071792;28;20048;-74
2023/12/20 10:34:48;;;;;;;7.65;1.30;;;;;;;;;;5084386;28;20044;-75
2023/12/20 10:37:14;;;;;;;11.48;1.73;;;;;;;;;;5092146;28;20090;-75
2023/12/20 10:39:43;;;;;;;9.35;1.52;;;;;;;;;;5076876;28;20139;-75
2023/12/20 10:42:10;;;;;;;10.88;1.60;;;;;;;;;;5094959;28;20040;-75
2023/12/20 10:44:36;;;;;;;12.10;1.70;;;;;;;;;;5095315;28;20044;-75
2023/12/20 10:47:02;;;;;;;11.23;1.55;;;;;;;;;;5095276;28;20044;-75
2023/12/20 10:49:29;;;;;;;9.15;1.30;;;;;;;;;;5095227;28;20122;-75
2023/12/20 10:51:57;;;;;;;7.90;1.42;;;;;;;;;;5094201;28;20076;-75
2023/12/20 10:54:23;;;;;;;7.50;1.30;;;;;;;;;;5094801;28;20125;-74
2023/12/20 10:56:51;;;;;;;10.02;1.63;;;;;;;;;;5094981;28;20079;-75
2023/12/20 10:59:20;;;;;;;8.35;1.50;;;;;;;;;;5092758;28;20048;-75
2023/12/20 11:01:47;;;;;;;10.48;1.67;;;;;;;;;;5060815;28;20044;-75
2023/12/20 11:04:16;;;;;;;12.35;1.90;;;;;;;;;;5094900;28;20048;-75
2023/12/20 11:06:52;;;;;;;13.55;1.88;;;;;;;;;;5086631;28;20037;-74
2023/12/20 11:09:23;;;;;;;12.10;1.45;;;;;;;;;;5087482;28;20106;-75
2023/12/20 11:12:07;;;;;;;12.98;1.70;;;;;;;;;;5063520;28;20094;-75
2023/12/20 11:14:50;;;;;;;12.15;1.42;;;;;;;;;;5083581;28;20048;-75
2023/12/20 11:17:18;;;;;;;11.07;1.65;;;;;;;;;;5093708;28;20059;-75
2023/12/20 11:20:04;;;;;;;9.80;1.65;;;;;;;;;;5094400;28;20088;-75
2023/12/20 11:22:33;;;;;;;7.35;1.23;;;;;;;;;;5094170;28;20050;-75
2023/12/20 11:25:09;;;;;;;9.07;1.33;;;;;;;;;;5083540;28;20041;-75
2023/12/20 11:27:35;;;;;;;11.95;1.75;;;;;;;;;;5089562;28;20500;-75
2023/12/20 11:30:05;;;;;;;12.35;1.88;;;;;;;;;;5094474;28;20123;-75
2023/12/20 11:32:32;;;;;;;12.17;1.90;;;;;;;;;;5085711;28;20435;-75
2023/12/20 11:35:10;;;;;;;10.35;1.40;;;;;;;;;;5067756;28;20040;-75
2023/12/20 11:37:37;;;;;;;10.85;1.35;;;;;;;;;;5087257;28;20055;-75
2023/12/20 11:40:03;;;;;;;11.93;1.45;;;;;;;;;;5085277;28;20036;-75
2023/12/20 11:42:34;;;;;;;11.52;1.70;;;;;;;;;;5088337;28;20044;-75
2023/12/20 11:45:00;;;;;;;13.03;1.50;;;;;;;;;;5087605;28;20401;-75
2023/12/20 11:47:26;;;;;;;14.13;1.90;;;;;;;;;;5087374;28;20036;-75
2023/12/20 11:49:52;;;;;;;11.27;1.80;;;;;;;;;;5087638;28;20482;-75
2023/12/20 11:52:18;;;;;;;11.73;1.85;;;;;;;;;;5092786;28;20485;-75
2023/12/20 11:54:44;;;;;;;15.27;2.17;;;;;;;;;;5087406;28;20055;-75
2023/12/20 11:57:10;;;;;;;11.27;1.90;;;;;;;;;;5073341;28;20478;-75
2023/12/20 11:59:37;;;;;;;11.70;1.70;;;;;;;;;;5073663;28;20076;-75
2023/12/20 12:02:03;;;;;;;13.20;1.98;;;;;;;;;;5055361;28;20045;-75
2023/12/20 12:04:29;;;;;;;13.20;1.70;;;;;;;;;;5038952;28;20054;-75
2023/12/20 12:06:55;;;;;;;14.68;1.90;;;;;;;;;;5073233;28;20486;-75
2023/12/20 12:09:21;;;;;;;16.65;1.92;;;;;;;;;;5080559;28;20458;-75
2023/12/20 12:11:47;;;;;;;14.77;2.33;;;;;;;;;;5078535;28;20041;-75
2023/12/20 12:14:14;;;;;;;14.40;2.13;;;;;;;;;;5092694;28;20122;-75
2023/12/20 12:16:43;;;;;;;13.07;2.53;;;;;;;;;;5084110;28;20049;-75
2023/12/20 12:19:20;;;;;;;14.82;1.77;;;;;;;;;;5058396;28;20072;-75
2023/12/20 12:21:46;;;;;;;17.58;2.40;;;;;;;;;;5072776;28;20045;-75
2023/12/20 12:24:13;;;;;;;15.75;2.63;;;;;;;;;;5075495;28;20086;-75
2023/12/20 12:26:39;;;;;;;14.60;2.20;;;;;;;;;;5075190;28;20048;-75
2023/12/20 12:29:07;;;;;;;17.42;3.13;;;;;;;;;;5093024;28;20048;-75
2023/12/20 12:31:33;;;;;;;15.45;2.35;;;;;;;;;;5077684;28;20486;-75
2023/12/20 12:34:00;;;;;;;15.00;2.45;;;;;;;;;;5090225;28;20056;-75
2023/12/20 12:36:26;;;;;;;14.25;2.28;;;;;;;;;;5092027;28;20084;-75
2023/12/20 12:38:52;;;;;;;12.90;2.20;;;;;;;;;;5093087;28;20048;-75
2023/12/20 12:41:18;;;;;;;15.52;2.10;;;;;;;;;;5092941;28;20079;-75
2023/12/20 12:43:44;;;;;;;14.90;2.30;;;;;;;;;;5092330;28;20412;-75
2023/12/20 12:46:10;;;;;;;15.77;2.08;;;;;;;;;;5092933;28;20051;-75
2023/12/20 12:48:36;;;;;;;15.77;2.50;;;;;;;;;;5092853;28;20044;-75
2023/12/20 12:51:02;;;;;;;14.75;2.50;;;;;;;;;;5091345;28;20082;-75
2023/12/20 12:53:28;;;;;;;14.35;2.17;;;;;;;;;;5091739;28;20044;-75
2023/12/20 12:55:54;;;;;;;19.30;3.20;;;;;;;;;;5078710;28;20371;-75
2023/12/20 12:58:21;;;;;;;17.17;2.80;;;;;;;;;;5076563;28;20143;-74
2023/12/20 13:00:47;;;;;;;14.63;1.90;;;;;;;;;;5084154;28;20060;-75
2023/12/20 13:03:13;;;;;;;16.67;2.28;;;;;;;;;;5082112;28;20048;-75
2023/12/20 13:05:39;;;;;;;18.20;2.60;;;;;;;;;;5074648;28;20048;-75
2023/12/20 13:08:06;;;;;;;13.77;2.17;;;;;;;;;;5078580;28;20068;-75
2023/12/20 13:10:32;;;;;;;16.13;2.67;;;;;;;;;;5072709;28;20394;-75
2023/12/20 13:12:58;;;;;;;15.38;2.50;;;;;;;;;;5072261;28;20044;-75
2023/12/20 13:15:24;;;;;;;15.75;2.10;;;;;;;;;;5074814;28;20159;-75
2023/12/20 13:17:50;;;;;;;20.98;2.65;;;;;;;;;;5086560;28;20056;-75
2023/12/20 13:20:16;;;;;;;19.27;2.97;;;;;;;;;;5065138;28;20044;-75
2023/12/20 13:22:42;;;;;;;14.65;2.20;;;;;;;;;;5092414;28;20377;-75
2023/12/20 13:25:08;;;;;;;19.27;2.85;;;;;;;;;;5073881;28;20048;-75
2023/12/20 13:27:35;;;;;;;12.18;1.95;;;;;;;;;;5092149;28;20040;-75
2023/12/20 13:30:01;;;;;;;15.40;2.45;;;;;;;;;;5091734;28;20055;-75
2023/12/20 13:32:27;;;;;;;12.75;1.92;;;;;;;;;;5078654;28;20193;-75
2023/12/20 13:34:53;;;;;;;15.93;2.38;;;;;;;;;;5076559;28;20036;-75
2023/12/20 13:37:19;;;;;;;10.80;2.10;;;;;;;;;;5086076;28;20043;-75
2023/12/20 13:39:45;;;;;;;13.40;1.90;;;;;;;;;;5084581;28;20044;-75
2023/12/20 13:42:11;;;;;;;18.23;2.20;;;;;;;;;;5073028;28;20143;-75
2023/12/20 13:44:37;;;;;;;10.88;2.10;;;;;;;;;;5071883;28;20044;-75
2023/12/20 13:47:04;;;;;;;13.73;2.22;;;;;;;;;;5074835;28;20056;-75
2023/12/20 13:49:30;;;;;;;19.02;2.30;;;;;;;;;;5080405;28;20044;-75
2023/12/20 13:51:57;;;;;;;13.18;2.35;;;;;;;;;;5084050;28;20048;-75
2023/12/20 13:54:23;;;;;;;15.43;2.17;;;;;;;;;;5080873;28;20048;-75
2023/12/20 13:56:49;;;;;;;13.25;2.42;;;;;;;;;;5076931;28;20076;-75
2023/12/20 13:59:16;;;;;;;13.38;2.00;;;;;;;;;;5083186;28;20036;-75
2023/12/20 14:01:42;;;;;;;14.13;1.80;;;;;;;;;;5079331;28;20056;-75
2023/12/20 14:04:08;;;;;;;12.35;2.20;;;;;;;;;;5061163;28;20052;-75
2023/12/20 14:06:34;;;;;;;13.25;1.77;;;;;;;;;;5077768;28;20051;-75
2023/12/20 14:09:00;;;;;;;9.65;1.70;;;;;;;;;;5080657;28;20135;-75
2023/12/20 14:11:26;;;;;;;14.30;2.22;;;;;;;;;;5079342;28;20394;-75
2023/12/20 14:13:57;;;;;;;12.50;1.75;;;;;;;;;;5062129;28;20048;-75
2023/12/20 14:16:23;;;;;;;11.65;1.58;;;;;;;;;;5085369;28;20048;-75
2023/12/20 14:18:51;;;;;;;13.75;2.13;;;;;;;;;;5086012;28;20051;-75
2023/12/20 14:21:19;;;;;;;19.23;3.00;;;;;;;;;;5086267;28;20051;-75
2023/12/20 14:23:46;;;;;;;12.77;2.00;;;;;;;;;;5093280;28;20385;-74
2023/12/20 14:26:14;;;;;;;12.60;1.83;;;;;;;;;;5063044;28;20041;-75